Norfolk, Virginia
Traffic Map
Current Weather Conditions
Norfolk, Virginia
Few Clouds
Few Clouds
65°
Feels Like: 65°
Wind Chill: 65° Ceiling: Unl
Heat Index: 65° Visibility: 10mi
Dew Point: 46° Wind: 10mph
Humidity: 50% Direction: 300° (WNW)
Pressure: 29.83in Gusts: 20mph
Raw Report DataKORF 231951Z AUTO 30009G17KT 260V330 10SM FEW043 18/08 A2983 RMK AO2 SLP100 T01830078 TSNO
Traffic Incident Summary
Active as of:
Severity:
Category:
InformationThere was an issue retrieving the traffic information for this location. Please try a different location or try again shortly.
Advertisements
Track Severe Weather on mobile